sensor_id;sensor_type;location;lat;lon;timestamp;P1;durP1;ratioP1;P2;durP2;ratioP2
23236;SDS011;11787;52.018;8.570;2023-05-10T00:01:24;6.95;;;6.35;;
23236;SDS011;11787;52.018;8.570;2023-05-10T00:03:50;7.70;;;7.00;;
23236;SDS011;11787;52.018;8.570;2023-05-10T00:06:16;7.05;;;6.30;;
23236;SDS011;11787;52.018;8.570;2023-05-10T00:08:41;7.15;;;6.55;;
23236;SDS011;11787;52.018;8.570;2023-05-10T00:11:07;7.88;;;7.18;;
23236;SDS011;11787;52.018;8.570;2023-05-10T00:13:33;6.93;;;6.32;;
23236;SDS011;11787;52.018;8.570;2023-05-10T00:15:58;6.78;;;6.18;;
23236;SDS011;11787;52.018;8.570;2023-05-10T00:18:24;6.93;;;6.32;;
23236;SDS011;11787;52.018;8.570;2023-05-10T00:20:50;7.55;;;6.90;;
23236;SDS011;11787;52.018;8.570;2023-05-10T00:23:15;7.63;;;6.93;;
23236;SDS011;11787;52.018;8.570;2023-05-10T00:25:41;7.55;;;6.57;;
23236;SDS011;11787;52.018;8.570;2023-05-10T00:28:07;7.38;;;6.68;;
23236;SDS011;11787;52.018;8.570;2023-05-10T00:30:32;7.57;;;6.88;;
23236;SDS011;11787;52.018;8.570;2023-05-10T00:32:58;7.80;;;7.10;;
23236;SDS011;11787;52.018;8.570;2023-05-10T00:35:23;7.78;;;7.07;;
23236;SDS011;11787;52.018;8.570;2023-05-10T00:37:49;8.63;;;7.72;;
23236;SDS011;11787;52.018;8.570;2023-05-10T00:40:15;7.85;;;7.05;;
23236;SDS011;11787;52.018;8.570;2023-05-10T00:42:40;8.13;;;7.43;;
23236;SDS011;11787;52.018;8.570;2023-05-10T00:45:06;8.23;;;7.53;;
23236;SDS011;11787;52.018;8.570;2023-05-10T00:47:32;7.85;;;6.95;;
23236;SDS011;11787;52.018;8.570;2023-05-10T00:49:58;7.90;;;7.20;;
23236;SDS011;11787;52.018;8.570;2023-05-10T00:57:17;8.05;;;7.35;;
23236;SDS011;11787;52.018;8.570;2023-05-10T01:38:18;5.63;;;5.07;;
23236;SDS011;11787;52.018;8.570;2023-05-10T01:43:33;5.25;;;4.75;;
23236;SDS011;11787;52.018;8.570;2023-05-10T01:46:09;6.53;;;5.93;;
23236;SDS011;11787;52.018;8.570;2023-05-10T01:48:47;6.78;;;6.18;;
23236;SDS011;11787;52.018;8.570;2023-05-10T01:51:15;6.22;;;5.63;;
23236;SDS011;11787;52.018;8.570;2023-05-10T01:53:45;6.40;;;5.80;;
23236;SDS011;11787;52.018;8.570;2023-05-10T01:56:12;7.53;;;6.82;;
23236;SDS011;11787;52.018;8.570;2023-05-10T01:58:39;6.63;;;6.03;;
23236;SDS011;11787;52.018;8.570;2023-05-10T02:01:08;8.43;;;7.63;;
23236;SDS011;11787;52.018;8.570;2023-05-10T02:03:35;8.02;;;7.22;;
23236;SDS011;11787;52.018;8.570;2023-05-10T02:06:03;6.82;;;5.72;;
23236;SDS011;11787;52.018;8.570;2023-05-10T02:08:30;6.00;;;5.20;;
23236;SDS011;11787;52.018;8.570;2023-05-10T02:10:57;4.43;;;4.03;;
23236;SDS011;11787;52.018;8.570;2023-05-10T02:13:24;4.50;;;3.85;;
23236;SDS011;11787;52.018;8.570;2023-05-10T02:15:51;4.43;;;4.03;;
23236;SDS011;11787;52.018;8.570;2023-05-10T02:18:19;5.00;;;4.50;;
23236;SDS011;11787;52.018;8.570;2023-05-10T02:20:47;4.25;;;3.53;;
23236;SDS011;11787;52.018;8.570;2023-05-10T02:23:13;3.80;;;3.50;;
23236;SDS011;11787;52.018;8.570;2023-05-10T02:25:40;3.53;;;3.15;;
23236;SDS011;11787;52.018;8.570;2023-05-10T02:28:08;4.28;;;3.88;;
23236;SDS011;11787;52.018;8.570;2023-05-10T02:30:35;3.30;;;3.00;;
23236;SDS011;11787;52.018;8.570;2023-05-10T02:33:01;3.50;;;3.20;;
23236;SDS011;11787;52.018;8.570;2023-05-10T02:35:29;4.07;;;3.38;;
23236;SDS011;11787;52.018;8.570;2023-05-10T02:37:56;3.28;;;2.72;;
23236;SDS011;11787;52.018;8.570;2023-05-10T02:40:23;3.70;;;3.10;;
23236;SDS011;11787;52.018;8.570;2023-05-10T02:42:50;3.08;;;2.80;;
23236;SDS011;11787;52.018;8.570;2023-05-10T02:45:21;3.60;;;3.30;;
23236;SDS011;11787;52.018;8.570;2023-05-10T02:47:49;4.43;;;4.03;;
23236;SDS011;11787;52.018;8.570;2023-05-10T02:50:15;4.38;;;3.97;;
23236;SDS011;11787;52.018;8.570;2023-05-10T02:52:44;5.00;;;4.60;;
23236;SDS011;11787;52.018;8.570;2023-05-10T02:55:14;5.22;;;4.82;;
23236;SDS011;11787;52.018;8.570;2023-05-10T02:57:43;5.82;;;5.32;;
23236;SDS011;11787;52.018;8.570;2023-05-10T03:00:25;6.15;;;5.55;;
23236;SDS011;11787;52.018;8.570;2023-05-10T03:02:51;5.90;;;5.38;;
23236;SDS011;11787;52.018;8.570;2023-05-10T03:05:17;5.93;;;5.35;;
23236;SDS011;11787;52.018;8.570;2023-05-10T03:07:43;5.45;;;4.95;;
23236;SDS011;11787;52.018;8.570;2023-05-10T03:10:10;5.70;;;5.20;;
23236;SDS011;11787;52.018;8.570;2023-05-10T03:15:19;7.05;;;6.38;;
23236;SDS011;11787;52.018;8.570;2023-05-10T03:17:57;6.93;;;6.32;;
23236;SDS011;11787;52.018;8.570;2023-05-10T03:26:05;8.27;;;7.47;;
23236;SDS011;11787;52.018;8.570;2023-05-10T03:28:33;9.50;;;8.65;;
23236;SDS011;11787;52.018;8.570;2023-05-10T03:31:00;10.85;;;9.85;;
23236;SDS011;11787;52.018;8.570;2023-05-10T03:33:27;13.75;;;10.52;;
23236;SDS011;11787;52.018;8.570;2023-05-10T03:35:53;13.40;;;12.00;;
23236;SDS011;11787;52.018;8.570;2023-05-10T03:38:18;13.32;;;12.02;;
23236;SDS011;11787;52.018;8.570;2023-05-10T03:40:44;13.30;;;11.98;;
23236;SDS011;11787;52.018;8.570;2023-05-10T03:43:10;13.05;;;11.75;;
23236;SDS011;11787;52.018;8.570;2023-05-10T03:45:35;11.65;;;10.38;;
23236;SDS011;11787;52.018;8.570;2023-05-10T03:48:01;11.13;;;10.02;;
23236;SDS011;11787;52.018;8.570;2023-05-10T03:50:26;7.93;;;7.22;;
23236;SDS011;11787;52.018;8.570;2023-05-10T03:52:52;6.30;;;5.80;;
23236;SDS011;11787;52.018;8.570;2023-05-10T03:55:18;5.70;;;5.20;;
23236;SDS011;11787;52.018;8.570;2023-05-10T03:57:43;5.60;;;5.10;;
23236;SDS011;11787;52.018;8.570;2023-05-10T04:00:09;4.68;;;4.28;;
23236;SDS011;11787;52.018;8.570;2023-05-10T04:02:35;5.18;;;4.68;;
23236;SDS011;11787;52.018;8.570;2023-05-10T04:05:01;4.68;;;4.28;;
23236;SDS011;11787;52.018;8.570;2023-05-10T04:07:27;4.30;;;3.90;;
23236;SDS011;11787;52.018;8.570;2023-05-10T04:09:53;3.90;;;3.58;;
23236;SDS011;11787;52.018;8.570;2023-05-10T04:12:18;3.90;;;3.50;;
23236;SDS011;11787;52.018;8.570;2023-05-10T04:14:44;3.22;;;2.95;;
23236;SDS011;11787;52.018;8.570;2023-05-10T04:17:09;2.70;;;2.50;;
23236;SDS011;11787;52.018;8.570;2023-05-10T04:19:35;2.33;;;1.90;;
23236;SDS011;11787;52.018;8.570;2023-05-10T04:22:01;1.95;;;1.77;;
23236;SDS011;11787;52.018;8.570;2023-05-10T04:24:27;2.20;;;1.45;;
23236;SDS011;11787;52.018;8.570;2023-05-10T04:26:53;1.10;;;0.95;;
23236;SDS011;11787;52.018;8.570;2023-05-10T04:29:19;0.80;;;0.80;;
23236;SDS011;11787;52.018;8.570;2023-05-10T04:31:45;0.88;;;0.88;;
23236;SDS011;11787;52.018;8.570;2023-05-10T04:34:11;1.40;;;0.68;;
23236;SDS011;11787;52.018;8.570;2023-05-10T04:36:36;0.75;;;0.57;;
23236;SDS011;11787;52.018;8.570;2023-05-10T04:39:02;2.15;;;0.55;;
23236;SDS011;11787;52.018;8.570;2023-05-10T04:41:28;2.03;;;0.70;;
23236;SDS011;11787;52.018;8.570;2023-05-10T04:43:54;0.90;;;0.70;;
23236;SDS011;11787;52.018;8.570;2023-05-10T04:46:20;2.03;;;0.85;;
23236;SDS011;11787;52.018;8.570;2023-05-10T04:48:46;0.70;;;0.70;;
23236;SDS011;11787;52.018;8.570;2023-05-10T04:51:12;1.60;;;0.60;;
23236;SDS011;11787;52.018;8.570;2023-05-10T04:53:38;1.58;;;0.90;;
23236;SDS011;11787;52.018;8.570;2023-05-10T04:56:03;1.20;;;0.90;;
23236;SDS011;11787;52.018;8.570;2023-05-10T04:58:29;1.02;;;0.93;;
23236;SDS011;11787;52.018;8.570;2023-05-10T05:00:55;1.45;;;1.20;;
23236;SDS011;11787;52.018;8.570;2023-05-10T05:03:20;1.38;;;1.15;;
23236;SDS011;11787;52.018;8.570;2023-05-10T05:05:47;2.42;;;1.23;;
23236;SDS011;11787;52.018;8.570;2023-05-10T05:08:12;2.08;;;1.33;;
23236;SDS011;11787;52.018;8.570;2023-05-10T05:10:38;1.45;;;1.35;;
23236;SDS011;11787;52.018;8.570;2023-05-10T05:13:04;1.23;;;1.10;;
23236;SDS011;11787;52.018;8.570;2023-05-10T05:15:30;1.38;;;1.27;;
23236;SDS011;11787;52.018;8.570;2023-05-10T05:17:55;2.35;;;1.20;;
23236;SDS011;11787;52.018;8.570;2023-05-10T05:20:21;1.88;;;1.35;;
23236;SDS011;11787;52.018;8.570;2023-05-10T05:22:47;1.30;;;1.20;;
23236;SDS011;11787;52.018;8.570;2023-05-10T05:25:12;1.27;;;1.17;;
23236;SDS011;11787;52.018;8.570;2023-05-10T05:27:38;1.50;;;1.33;;
23236;SDS011;11787;52.018;8.570;2023-05-10T05:30:04;1.42;;;1.33;;
23236;SDS011;11787;52.018;8.570;2023-05-10T05:32:30;1.60;;;1.50;;
23236;SDS011;11787;52.018;8.570;2023-05-10T05:34:56;1.83;;;1.70;;
23236;SDS011;11787;52.018;8.570;2023-05-10T05:37:21;4.55;;;2.40;;
23236;SDS011;11787;52.018;8.570;2023-05-10T05:39:47;3.45;;;2.50;;
23236;SDS011;11787;52.018;8.570;2023-05-10T05:42:13;2.70;;;2.22;;
23236;SDS011;11787;52.018;8.570;2023-05-10T05:44:39;2.50;;;2.30;;
23236;SDS011;11787;52.018;8.570;2023-05-10T05:47:05;2.97;;;2.28;;
23236;SDS011;11787;52.018;8.570;2023-05-10T05:49:31;2.65;;;2.40;;
23236;SDS011;11787;52.018;8.570;2023-05-10T05:52:00;3.33;;;2.30;;
23236;SDS011;11787;52.018;8.570;2023-05-10T05:54:27;3.22;;;2.10;;
23236;SDS011;11787;52.018;8.570;2023-05-10T05:56:56;2.85;;;2.08;;
23236;SDS011;11787;52.018;8.570;2023-05-10T06:01:48;2.40;;;2.20;;
23236;SDS011;11787;52.018;8.570;2023-05-10T06:09:06;2.00;;;1.90;;
23236;SDS011;11787;52.018;8.570;2023-05-10T06:11:31;2.45;;;2.25;;
23236;SDS011;11787;52.018;8.570;2023-05-10T06:13:57;1.80;;;1.70;;
23236;SDS011;11787;52.018;8.570;2023-05-10T06:18:48;1.80;;;1.70;;
23236;SDS011;11787;52.018;8.570;2023-05-10T06:21:14;1.92;;;1.60;;
23236;SDS011;11787;52.018;8.570;2023-05-10T06:40:43;2.65;;;1.95;;
23236;SDS011;11787;52.018;8.570;2023-05-10T06:43:09;4.10;;;1.60;;
23236;SDS011;11787;52.018;8.570;2023-05-10T06:45:35;2.90;;;2.05;;
23236;SDS011;11787;52.018;8.570;2023-05-10T06:48:01;3.72;;;2.20;;
23236;SDS011;11787;52.018;8.570;2023-05-10T06:50:27;2.80;;;2.50;;
23236;SDS011;11787;52.018;8.570;2023-05-10T06:52:52;2.05;;;1.85;;
23236;SDS011;11787;52.018;8.570;2023-05-10T06:55:18;2.33;;;1.88;;
23236;SDS011;11787;52.018;8.570;2023-05-10T06:57:44;4.28;;;2.00;;
23236;SDS011;11787;52.018;8.570;2023-05-10T07:00:09;2.75;;;1.98;;
23236;SDS011;11787;52.018;8.570;2023-05-10T07:02:35;2.58;;;1.80;;
23236;SDS011;11787;52.018;8.570;2023-05-10T07:05:01;2.38;;;1.95;;
23236;SDS011;11787;52.018;8.570;2023-05-10T07:07:27;3.55;;;2.03;;
23236;SDS011;11787;52.018;8.570;2023-05-10T07:09:53;2.95;;;2.10;;
23236;SDS011;11787;52.018;8.570;2023-05-10T07:12:19;2.15;;;1.95;;
23236;SDS011;11787;52.018;8.570;2023-05-10T07:14:45;3.42;;;2.20;;
23236;SDS011;11787;52.018;8.570;2023-05-10T07:17:11;3.10;;;2.17;;
23236;SDS011;11787;52.018;8.570;2023-05-10T07:19:37;4.25;;;2.88;;
23236;SDS011;11787;52.018;8.570;2023-05-10T07:22:02;3.15;;;2.67;;
23236;SDS011;11787;52.018;8.570;2023-05-10T07:24:28;4.00;;;2.80;;
23236;SDS011;11787;52.018;8.570;2023-05-10T07:26:54;5.32;;;3.67;;
23236;SDS011;11787;52.018;8.570;2023-05-10T07:29:19;3.70;;;3.20;;
23236;SDS011;11787;52.018;8.570;2023-05-10T07:31:45;4.20;;;3.80;;
23236;SDS011;11787;52.018;8.570;2023-05-10T07:34:10;6.88;;;3.63;;
23236;SDS011;11787;52.018;8.570;2023-05-10T07:36:36;5.60;;;4.53;;
23236;SDS011;11787;52.018;8.570;2023-05-10T07:39:02;5.10;;;4.60;;
23236;SDS011;11787;52.018;8.570;2023-05-10T07:41:27;5.75;;;4.53;;
23236;SDS011;11787;52.018;8.570;2023-05-10T07:43:53;6.43;;;5.65;;
23236;SDS011;11787;52.018;8.570;2023-05-10T07:46:18;7.32;;;6.00;;
23236;SDS011;11787;52.018;8.570;2023-05-10T07:48:44;8.30;;;6.07;;
23236;SDS011;11787;52.018;8.570;2023-05-10T07:51:10;8.80;;;6.57;;
23236;SDS011;11787;52.018;8.570;2023-05-10T07:53:36;7.50;;;6.28;;
23236;SDS011;11787;52.018;8.570;2023-05-10T07:56:19;8.57;;;6.97;;
23236;SDS011;11787;52.018;8.570;2023-05-10T07:58:46;9.52;;;7.53;;
23236;SDS011;11787;52.018;8.570;2023-05-10T08:01:12;11.55;;;8.45;;
23236;SDS011;11787;52.018;8.570;2023-05-10T08:03:37;11.40;;;8.30;;
23236;SDS011;11787;52.018;8.570;2023-05-10T08:06:03;10.70;;;8.02;;
23236;SDS011;11787;52.018;8.570;2023-05-10T08:08:29;11.52;;;9.38;;
23236;SDS011;11787;52.018;8.570;2023-05-10T08:10:54;12.00;;;8.95;;
23236;SDS011;11787;52.018;8.570;2023-05-10T08:13:20;13.48;;;9.75;;
23236;SDS011;11787;52.018;8.570;2023-05-10T08:15:46;13.88;;;11.02;;
23236;SDS011;11787;52.018;8.570;2023-05-10T08:18:12;11.82;;;9.95;;
23236;SDS011;11787;52.018;8.570;2023-05-10T08:20:37;16.08;;;11.10;;
23236;SDS011;11787;52.018;8.570;2023-05-10T08:23:03;12.98;;;10.65;;
23236;SDS011;11787;52.018;8.570;2023-05-10T08:25:29;13.90;;;10.98;;
23236;SDS011;11787;52.018;8.570;2023-05-10T08:27:54;15.65;;;11.63;;
23236;SDS011;11787;52.018;8.570;2023-05-10T08:30:20;15.50;;;11.85;;
23236;SDS011;11787;52.018;8.570;2023-05-10T08:32:45;16.08;;;11.70;;
23236;SDS011;11787;52.018;8.570;2023-05-10T08:35:11;16.60;;;12.05;;
23236;SDS011;11787;52.018;8.570;2023-05-10T08:37:36;16.95;;;11.77;;
23236;SDS011;11787;52.018;8.570;2023-05-10T08:40:02;17.60;;;12.77;;
23236;SDS011;11787;52.018;8.570;2023-05-10T08:42:28;18.30;;;13.00;;
23236;SDS011;11787;52.018;8.570;2023-05-10T08:44:58;15.43;;;12.80;;
23236;SDS011;11787;52.018;8.570;2023-05-10T08:47:24;15.45;;;12.35;;
23236;SDS011;11787;52.018;8.570;2023-05-10T08:49:50;14.38;;;11.32;;
23236;SDS011;11787;52.018;8.570;2023-05-10T08:52:17;17.05;;;11.82;;
23236;SDS011;11787;52.018;8.570;2023-05-10T08:54:43;16.02;;;11.85;;
23236;SDS011;11787;52.018;8.570;2023-05-10T08:57:09;16.60;;;12.35;;
23236;SDS011;11787;52.018;8.570;2023-05-10T08:59:35;13.77;;;11.20;;
23236;SDS011;11787;52.018;8.570;2023-05-10T09:02:04;16.27;;;12.10;;
23236;SDS011;11787;52.018;8.570;2023-05-10T09:04:30;17.50;;;11.95;;
23236;SDS011;11787;52.018;8.570;2023-05-10T09:06:56;14.90;;;11.75;;
23236;SDS011;11787;52.018;8.570;2023-05-10T09:09:22;13.95;;;10.85;;
23236;SDS011;11787;52.018;8.570;2023-05-10T09:11:50;15.93;;;12.32;;
23236;SDS011;11787;52.018;8.570;2023-05-10T09:14:17;14.93;;;12.57;;
23236;SDS011;11787;52.018;8.570;2023-05-10T09:16:44;15.73;;;12.55;;
23236;SDS011;11787;52.018;8.570;2023-05-10T09:19:10;17.48;;;12.63;;
23236;SDS011;11787;52.018;8.570;2023-05-10T09:21:36;18.33;;;14.32;;
23236;SDS011;11787;52.018;8.570;2023-05-10T09:24:06;20.17;;;15.23;;
23236;SDS011;11787;52.018;8.570;2023-05-10T09:26:33;19.83;;;14.85;;
23236;SDS011;11787;52.018;8.570;2023-05-10T09:29:00;19.98;;;15.80;;
23236;SDS011;11787;52.018;8.570;2023-05-10T09:34:31;24.23;;;18.15;;
23236;SDS011;11787;52.018;8.570;2023-05-10T09:36:58;22.42;;;18.08;;
23236;SDS011;11787;52.018;8.570;2023-05-10T09:39:36;24.45;;;18.13;;
23236;SDS011;11787;52.018;8.570;2023-05-10T09:42:03;24.52;;;17.27;;
23236;SDS011;11787;52.018;8.570;2023-05-10T09:44:30;24.23;;;17.23;;
23236;SDS011;11787;52.018;8.570;2023-05-10T09:46:57;22.27;;;16.60;;
23236;SDS011;11787;52.018;8.570;2023-05-10T09:49:23;22.13;;;16.15;;
23236;SDS011;11787;52.018;8.570;2023-05-10T09:52:02;20.02;;;16.00;;
23236;SDS011;11787;52.018;8.570;2023-05-10T09:54:29;23.77;;;17.00;;
23236;SDS011;11787;52.018;8.570;2023-05-10T09:56:56;19.30;;;14.95;;
23236;SDS011;11787;52.018;8.570;2023-05-10T09:59:21;18.75;;;15.48;;
23236;SDS011;11787;52.018;8.570;2023-05-10T10:01:51;20.10;;;15.27;;
23236;SDS011;11787;52.018;8.570;2023-05-10T10:04:17;18.17;;;15.67;;
23236;SDS011;11787;52.018;8.570;2023-05-10T10:06:46;19.15;;;15.10;;
23236;SDS011;11787;52.018;8.570;2023-05-10T10:09:22;19.50;;;15.77;;
23236;SDS011;11787;52.018;8.570;2023-05-10T10:11:49;17.43;;;13.70;;
23236;SDS011;11787;52.018;8.570;2023-05-10T10:14:16;17.70;;;13.90;;
23236;SDS011;11787;52.018;8.570;2023-05-10T10:16:43;16.30;;;13.60;;
23236;SDS011;11787;52.018;8.570;2023-05-10T10:19:09;14.25;;;12.75;;
23236;SDS011;11787;52.018;8.570;2023-05-10T10:21:35;13.25;;;11.15;;
23236;SDS011;11787;52.018;8.570;2023-05-10T10:24:01;14.70;;;11.00;;
23236;SDS011;11787;52.018;8.570;2023-05-10T10:26:26;16.83;;;12.23;;
23236;SDS011;11787;52.018;8.570;2023-05-10T10:31:47;12.63;;;9.85;;
23236;SDS011;11787;52.018;8.570;2023-05-10T10:34:22;10.52;;;8.50;;
23236;SDS011;11787;52.018;8.570;2023-05-10T10:36:55;11.93;;;9.13;;
23236;SDS011;11787;52.018;8.570;2023-05-10T10:39:21;11.82;;;8.65;;
23236;SDS011;11787;52.018;8.570;2023-05-10T10:41:53;9.68;;;8.27;;
23236;SDS011;11787;52.018;8.570;2023-05-10T10:52:15;14.60;;;7.38;;
23236;SDS011;11787;52.018;8.570;2023-05-10T10:57:19;8.07;;;5.83;;
23236;SDS011;11787;52.018;8.570;2023-05-10T10:59:47;7.18;;;5.38;;
23236;SDS011;11787;52.018;8.570;2023-05-10T11:02:55;6.38;;;5.07;;
23236;SDS011;11787;52.018;8.570;2023-05-10T11:05:49;6.22;;;4.50;;
23236;SDS011;11787;52.018;8.570;2023-05-10T11:07:53;5.60;;;4.10;;
23236;SDS011;11787;52.018;8.570;2023-05-10T11:10:23;7.07;;;4.55;;
23236;SDS011;11787;52.018;8.570;2023-05-10T11:13:02;6.38;;;5.22;;
23236;SDS011;11787;52.018;8.570;2023-05-10T11:15:35;7.47;;;5.45;;
23236;SDS011;11787;52.018;8.570;2023-05-10T11:18:23;6.95;;;5.40;;
23236;SDS011;11787;52.018;8.570;2023-05-10T11:21:02;6.80;;;5.60;;
23236;SDS011;11787;52.018;8.570;2023-05-10T11:26:06;6.22;;;5.30;;
23236;SDS011;11787;52.018;8.570;2023-05-10T11:28:41;6.05;;;4.95;;
23236;SDS011;11787;52.018;8.570;2023-05-10T11:31:10;7.90;;;5.47;;
23236;SDS011;11787;52.018;8.570;2023-05-10T11:38:57;11.43;;;5.57;;
23236;SDS011;11787;52.018;8.570;2023-05-10T11:41:23;6.35;;;4.85;;
23236;SDS011;11787;52.018;8.570;2023-05-10T11:43:50;7.75;;;5.50;;
23236;SDS011;11787;52.018;8.570;2023-05-10T11:46:18;7.38;;;5.30;;
23236;SDS011;11787;52.018;8.570;2023-05-10T11:48:45;7.13;;;5.72;;
23236;SDS011;11787;52.018;8.570;2023-05-10T11:51:14;6.88;;;5.15;;
23236;SDS011;11787;52.018;8.570;2023-05-10T11:53:39;7.72;;;6.07;;
23236;SDS011;11787;52.018;8.570;2023-05-10T11:56:06;5.70;;;4.95;;
23236;SDS011;11787;52.018;8.570;2023-05-10T11:58:33;10.57;;;6.07;;
23236;SDS011;11787;52.018;8.570;2023-05-10T12:00:59;8.07;;;6.22;;
23236;SDS011;11787;52.018;8.570;2023-05-10T12:03:25;6.63;;;5.13;;
23236;SDS011;11787;52.018;8.570;2023-05-10T12:05:55;8.80;;;5.63;;
23236;SDS011;11787;52.018;8.570;2023-05-10T12:08:22;5.65;;;5.00;;
23236;SDS011;11787;52.018;8.570;2023-05-10T12:10:50;9.68;;;4.55;;
23236;SDS011;11787;52.018;8.570;2023-05-10T12:13:16;7.88;;;4.95;;
23236;SDS011;11787;52.018;8.570;2023-05-10T12:15:42;6.50;;;5.32;;
23236;SDS011;11787;52.018;8.570;2023-05-10T12:18:09;9.18;;;6.03;;
23236;SDS011;11787;52.018;8.570;2023-05-10T12:20:35;14.80;;;8.50;;
23236;SDS011;11787;52.018;8.570;2023-05-10T12:23:01;13.95;;;8.50;;
23236;SDS011;11787;52.018;8.570;2023-05-10T12:25:32;11.95;;;9.02;;
23236;SDS011;11787;52.018;8.570;2023-05-10T12:28:00;11.23;;;9.15;;
23236;SDS011;11787;52.018;8.570;2023-05-10T12:30:30;13.43;;;9.93;;
23236;SDS011;11787;52.018;8.570;2023-05-10T12:33:15;15.05;;;10.27;;
23236;SDS011;11787;52.018;8.570;2023-05-10T12:35:44;17.48;;;12.02;;
23236;SDS011;11787;52.018;8.570;2023-05-10T12:38:31;16.92;;;11.75;;
23236;SDS011;11787;52.018;8.570;2023-05-10T12:40:59;15.60;;;12.57;;
23236;SDS011;11787;52.018;8.570;2023-05-10T12:43:26;14.73;;;11.60;;
23236;SDS011;11787;52.018;8.570;2023-05-10T12:45:52;13.93;;;11.15;;
23236;SDS011;11787;52.018;8.570;2023-05-10T12:48:18;16.17;;;11.30;;
23236;SDS011;11787;52.018;8.570;2023-05-10T12:50:43;14.70;;;11.20;;
23236;SDS011;11787;52.018;8.570;2023-05-10T12:53:09;15.57;;;11.30;;
23236;SDS011;11787;52.018;8.570;2023-05-10T12:55:35;15.90;;;11.75;;
23236;SDS011;11787;52.018;8.570;2023-05-10T12:58:00;17.70;;;13.07;;
23236;SDS011;11787;52.018;8.570;2023-05-10T13:00:26;17.70;;;12.77;;
23236;SDS011;11787;52.018;8.570;2023-05-10T13:02:51;18.17;;;13.00;;
23236;SDS011;11787;52.018;8.570;2023-05-10T13:05:17;15.55;;;12.90;;
23236;SDS011;11787;52.018;8.570;2023-05-10T13:07:43;15.18;;;12.65;;
23236;SDS011;11787;52.018;8.570;2023-05-10T13:10:09;14.15;;;12.45;;
23236;SDS011;11787;52.018;8.570;2023-05-10T13:12:35;14.85;;;12.32;;
23236;SDS011;11787;52.018;8.570;2023-05-10T13:15:01;15.63;;;10.20;;
23236;SDS011;11787;52.018;8.570;2023-05-10T13:17:27;12.43;;;9.77;;
23236;SDS011;11787;52.018;8.570;2023-05-10T13:19:53;12.52;;;10.55;;
23236;SDS011;11787;52.018;8.570;2023-05-10T13:22:19;13.40;;;11.02;;
23236;SDS011;11787;52.018;8.570;2023-05-10T13:24:45;12.02;;;10.02;;
23236;SDS011;11787;52.018;8.570;2023-05-10T13:27:10;14.48;;;11.63;;
23236;SDS011;11787;52.018;8.570;2023-05-10T13:29:36;14.65;;;11.02;;
23236;SDS011;11787;52.018;8.570;2023-05-10T13:32:01;15.20;;;12.43;;
23236;SDS011;11787;52.018;8.570;2023-05-10T13:34:27;17.58;;;11.57;;
23236;SDS011;11787;52.018;8.570;2023-05-10T13:36:53;15.88;;;11.85;;
23236;SDS011;11787;52.018;8.570;2023-05-10T13:39:20;13.20;;;11.70;;
23236;SDS011;11787;52.018;8.570;2023-05-10T13:41:46;16.17;;;10.43;;
23236;SDS011;11787;52.018;8.570;2023-05-10T13:44:12;9.57;;;7.43;;
23236;SDS011;11787;52.018;8.570;2023-05-10T13:46:39;8.80;;;6.15;;
23236;SDS011;11787;52.018;8.570;2023-05-10T13:49:05;12.05;;;7.05;;
23236;SDS011;11787;52.018;8.570;2023-05-10T13:51:31;11.80;;;8.70;;
23236;SDS011;11787;52.018;8.570;2023-05-10T13:53:57;14.35;;;10.35;;
23236;SDS011;11787;52.018;8.570;2023-05-10T13:56:23;13.45;;;10.88;;
23236;SDS011;11787;52.018;8.570;2023-05-10T13:58:48;13.10;;;10.90;;
23236;SDS011;11787;52.018;8.570;2023-05-10T14:01:14;12.90;;;10.13;;
23236;SDS011;11787;52.018;8.570;2023-05-10T14:03:40;13.68;;;10.30;;
23236;SDS011;11787;52.018;8.570;2023-05-10T14:06:05;12.93;;;10.98;;
23236;SDS011;11787;52.018;8.570;2023-05-10T14:08:32;13.73;;;10.68;;
23236;SDS011;11787;52.018;8.570;2023-05-10T14:10:59;12.63;;;9.68;;
23236;SDS011;11787;52.018;8.570;2023-05-10T14:13:24;13.18;;;10.50;;
23236;SDS011;11787;52.018;8.570;2023-05-10T14:15:50;15.07;;;10.63;;
23236;SDS011;11787;52.018;8.570;2023-05-10T14:18:16;13.05;;;10.10;;
23236;SDS011;11787;52.018;8.570;2023-05-10T14:20:42;13.43;;;9.38;;
23236;SDS011;11787;52.018;8.570;2023-05-10T14:23:07;13.70;;;10.68;;
23236;SDS011;11787;52.018;8.570;2023-05-10T14:25:33;11.48;;;8.70;;
23236;SDS011;11787;52.018;8.570;2023-05-10T14:27:59;11.43;;;9.32;;
23236;SDS011;11787;52.018;8.570;2023-05-10T14:30:25;12.65;;;9.25;;
23236;SDS011;11787;52.018;8.570;2023-05-10T14:32:50;13.25;;;10.27;;
23236;SDS011;11787;52.018;8.570;2023-05-10T14:35:18;12.45;;;10.40;;
23236;SDS011;11787;52.018;8.570;2023-05-10T14:37:44;12.30;;;10.25;;
23236;SDS011;11787;52.018;8.570;2023-05-10T14:40:10;12.93;;;9.50;;
23236;SDS011;11787;52.018;8.570;2023-05-10T14:42:40;12.77;;;10.73;;
23236;SDS011;11787;52.018;8.570;2023-05-10T14:45:07;13.52;;;10.25;;
23236;SDS011;11787;52.018;8.570;2023-05-10T14:47:33;13.65;;;10.15;;
23236;SDS011;11787;52.018;8.570;2023-05-10T14:49:59;13.68;;;11.10;;
23236;SDS011;11787;52.018;8.570;2023-05-10T14:52:25;15.63;;;11.88;;
23236;SDS011;11787;52.018;8.570;2023-05-10T14:54:50;16.48;;;13.07;;
23236;SDS011;11787;52.018;8.570;2023-05-10T14:57:16;14.07;;;11.75;;
23236;SDS011;11787;52.018;8.570;2023-05-10T14:59:42;17.30;;;13.05;;
23236;SDS011;11787;52.018;8.570;2023-05-10T15:02:07;15.50;;;13.73;;
23236;SDS011;11787;52.018;8.570;2023-05-10T15:04:33;16.75;;;13.05;;
23236;SDS011;11787;52.018;8.570;2023-05-10T15:06:58;14.57;;;12.43;;
23236;SDS011;11787;52.018;8.570;2023-05-10T15:09:25;14.73;;;12.75;;
23236;SDS011;11787;52.018;8.570;2023-05-10T15:31:30;20.67;;;15.00;;
23236;SDS011;11787;52.018;8.570;2023-05-10T15:33:59;20.45;;;16.00;;
23236;SDS011;11787;52.018;8.570;2023-05-10T15:36:24;19.15;;;15.38;;
23236;SDS011;11787;52.018;8.570;2023-05-10T15:38:50;19.02;;;14.98;;
23236;SDS011;11787;52.018;8.570;2023-05-10T15:41:15;20.30;;;15.10;;
23236;SDS011;11787;52.018;8.570;2023-05-10T15:43:41;18.85;;;14.98;;
23236;SDS011;11787;52.018;8.570;2023-05-10T15:46:07;19.23;;;14.32;;
23236;SDS011;11787;52.018;8.570;2023-05-10T15:48:33;17.40;;;14.93;;
23236;SDS011;11787;52.018;8.570;2023-05-10T15:50:58;16.70;;;13.88;;
23236;SDS011;11787;52.018;8.570;2023-05-10T15:53:24;17.08;;;14.10;;
23236;SDS011;11787;52.018;8.570;2023-05-10T15:55:50;19.08;;;14.00;;
23236;SDS011;11787;52.018;8.570;2023-05-10T15:58:15;18.00;;;13.57;;
23236;SDS011;11787;52.018;8.570;2023-05-10T16:00:41;17.67;;;14.38;;
23236;SDS011;11787;52.018;8.570;2023-05-10T16:03:06;16.33;;;14.23;;
23236;SDS011;11787;52.018;8.570;2023-05-10T16:05:32;16.45;;;13.32;;
23236;SDS011;11787;52.018;8.570;2023-05-10T16:08:01;17.90;;;12.93;;
23236;SDS011;11787;52.018;8.570;2023-05-10T16:10:26;17.45;;;12.88;;
23236;SDS011;11787;52.018;8.570;2023-05-10T16:12:55;17.63;;;13.20;;
23236;SDS011;11787;52.018;8.570;2023-05-10T16:15:21;16.10;;;13.07;;
23236;SDS011;11787;52.018;8.570;2023-05-10T16:17:46;17.35;;;13.93;;
23236;SDS011;11787;52.018;8.570;2023-05-10T16:20:12;14.43;;;12.13;;
23236;SDS011;11787;52.018;8.570;2023-05-10T16:22:37;13.10;;;10.80;;
23236;SDS011;11787;52.018;8.570;2023-05-10T16:25:03;11.27;;;9.70;;
23236;SDS011;11787;52.018;8.570;2023-05-10T16:27:29;13.40;;;10.63;;
23236;SDS011;11787;52.018;8.570;2023-05-10T16:29:57;12.68;;;10.23;;
23236;SDS011;11787;52.018;8.570;2023-05-10T16:32:23;13.57;;;11.55;;
23236;SDS011;11787;52.018;8.570;2023-05-10T16:34:48;13.70;;;9.75;;
23236;SDS011;11787;52.018;8.570;2023-05-10T16:37:14;13.45;;;9.57;;
23236;SDS011;11787;52.018;8.570;2023-05-10T16:39:40;12.25;;;9.70;;